sensor_id;sensor_type;location;lat;lon;timestamp;temperature;humidity
26053;DHT22;13826;51.186;4.450;2022-09-09T00:06:59;16.10;28.10
26053;DHT22;13826;51.186;4.450;2022-09-09T00:09:30;16.00;35.40
26053;DHT22;13826;51.186;4.450;2022-09-09T00:15:02;16.00;32.90
26053;DHT22;13826;51.186;4.450;2022-09-09T00:20:50;15.90;35.90
26053;DHT22;13826;51.186;4.450;2022-09-09T00:23:35;15.80;46.80
26053;DHT22;13826;51.186;4.450;2022-09-09T00:28:55;15.90;42.50
26053;DHT22;13826;51.186;4.450;2022-09-09T00:31:30;15.90;41.00
26053;DHT22;13826;51.186;4.450;2022-09-09T00:34:13;15.90;39.20
26053;DHT22;13826;51.186;4.450;2022-09-09T00:36:40;15.90;37.80
26053;DHT22;13826;51.186;4.450;2022-09-09T00:39:27;15.90;33.30
26053;DHT22;13826;51.186;4.450;2022-09-09T00:45:01;15.90;34.60
26053;DHT22;13826;51.186;4.450;2022-09-09T00:50:00;16.10;25.90
26053;DHT22;13826;51.186;4.450;2022-09-09T00:55:19;16.00;25.60
26053;DHT22;13826;51.186;4.450;2022-09-09T00:57:51;16.00;29.10
26053;DHT22;13826;51.186;4.450;2022-09-09T01:00:24;15.90;34.30
26053;DHT22;13826;51.186;4.450;2022-09-09T01:08:08;15.80;36.50
26053;DHT22;13826;51.186;4.450;2022-09-09T01:10:50;15.90;32.80
26053;DHT22;13826;51.186;4.450;2022-09-09T01:13:24;16.00;26.50
26053;DHT22;13826;51.186;4.450;2022-09-09T01:15:51;16.10;23.20
26053;DHT22;13826;51.186;4.450;2022-09-09T01:18:21;16.10;22.40
26053;DHT22;13826;51.186;4.450;2022-09-09T01:21:16;16.00;25.20
26053;DHT22;13826;51.186;4.450;2022-09-09T01:24:08;15.90;27.70
26053;DHT22;13826;51.186;4.450;2022-09-09T01:26:44;15.90;28.40
26053;DHT22;13826;51.186;4.450;2022-09-09T01:29:15;15.90;27.70
26053;DHT22;13826;51.186;4.450;2022-09-09T01:32:02;15.90;28.60
26053;DHT22;13826;51.186;4.450;2022-09-09T01:34:35;15.90;27.70
26053;DHT22;13826;51.186;4.450;2022-09-09T01:37:09;16.00;25.10
26053;DHT22;13826;51.186;4.450;2022-09-09T01:39:38;15.90;25.40
26053;DHT22;13826;51.186;4.450;2022-09-09T01:42:07;16.00;22.10
26053;DHT22;13826;51.186;4.450;2022-09-09T01:44:36;15.90;21.00
26053;DHT22;13826;51.186;4.450;2022-09-09T01:47:02;15.90;20.60
26053;DHT22;13826;51.186;4.450;2022-09-09T01:49:28;15.90;21.30
26053;DHT22;13826;51.186;4.450;2022-09-09T01:51:55;15.90;19.60
26053;DHT22;13826;51.186;4.450;2022-09-09T01:54:24;15.80;21.60
26053;DHT22;13826;51.186;4.450;2022-09-09T02:02:36;15.80;23.30
26053;DHT22;13826;51.186;4.450;2022-09-09T02:08:15;15.70;35.80
26053;DHT22;13826;51.186;4.450;2022-09-09T02:10:48;15.60;42.00
26053;DHT22;13826;51.186;4.450;2022-09-09T02:13:19;15.60;40.80
26053;DHT22;13826;51.186;4.450;2022-09-09T02:15:57;15.60;42.60
26053;DHT22;13826;51.186;4.450;2022-09-09T02:18:57;15.60;44.00
26053;DHT22;13826;51.186;4.450;2022-09-09T02:21:31;15.70;42.10
26053;DHT22;13826;51.186;4.450;2022-09-09T02:23:58;15.70;41.80
26053;DHT22;13826;51.186;4.450;2022-09-09T02:26:26;15.60;43.20
26053;DHT22;13826;51.186;4.450;2022-09-09T02:28:55;15.70;39.90
26053;DHT22;13826;51.186;4.450;2022-09-09T02:31:23;15.70;33.20
26053;DHT22;13826;51.186;4.450;2022-09-09T02:33:58;15.70;32.70
26053;DHT22;13826;51.186;4.450;2022-09-09T02:36:28;15.60;39.80
26053;DHT22;13826;51.186;4.450;2022-09-09T02:38:55;15.70;38.00
26053;DHT22;13826;51.186;4.450;2022-09-09T02:41:27;15.70;34.30
26053;DHT22;13826;51.186;4.450;2022-09-09T02:43:55;15.70;34.10
26053;DHT22;13826;51.186;4.450;2022-09-09T02:57:59;15.60;38.10
26053;DHT22;13826;51.186;4.450;2022-09-09T03:00:28;15.60;40.30
26053;DHT22;13826;51.186;4.450;2022-09-09T03:02:55;15.60;41.10
26053;DHT22;13826;51.186;4.450;2022-09-09T03:05:21;15.60;42.30
26053;DHT22;13826;51.186;4.450;2022-09-09T03:07:47;15.50;42.90
26053;DHT22;13826;51.186;4.450;2022-09-09T03:10:13;15.50;50.30
26053;DHT22;13826;51.186;4.450;2022-09-09T03:12:38;15.40;52.80
26053;DHT22;13826;51.186;4.450;2022-09-09T03:15:05;15.40;56.80
26053;DHT22;13826;51.186;4.450;2022-09-09T03:17:31;15.40;58.30
26053;DHT22;13826;51.186;4.450;2022-09-09T03:20:02;15.50;55.40
26053;DHT22;13826;51.186;4.450;2022-09-09T03:22:31;15.50;55.90
26053;DHT22;13826;51.186;4.450;2022-09-09T03:24:56;15.60;54.20
26053;DHT22;13826;51.186;4.450;2022-09-09T03:27:22;15.40;57.20
26053;DHT22;13826;51.186;4.450;2022-09-09T03:29:48;15.40;60.00
26053;DHT22;13826;51.186;4.450;2022-09-09T03:32:16;15.50;58.50
26053;DHT22;13826;51.186;4.450;2022-09-09T03:34:43;15.60;55.90
26053;DHT22;13826;51.186;4.450;2022-09-09T03:37:08;15.60;53.40
26053;DHT22;13826;51.186;4.450;2022-09-09T03:39:34;15.70;52.30
26053;DHT22;13826;51.186;4.450;2022-09-09T03:42:00;15.70;51.10
26053;DHT22;13826;51.186;4.450;2022-09-09T03:44:29;15.70;52.70
26053;DHT22;13826;51.186;4.450;2022-09-09T03:46:55;15.70;52.80
26053;DHT22;13826;51.186;4.450;2022-09-09T03:49:21;15.80;53.70
26053;DHT22;13826;51.186;4.450;2022-09-09T03:51:48;15.70;55.60
26053;DHT22;13826;51.186;4.450;2022-09-09T03:54:13;15.60;58.30
26053;DHT22;13826;51.186;4.450;2022-09-09T03:56:39;15.80;57.60
26053;DHT22;13826;51.186;4.450;2022-09-09T03:59:06;15.70;61.40
26053;DHT22;13826;51.186;4.450;2022-09-09T04:01:34;15.70;61.60
26053;DHT22;13826;51.186;4.450;2022-09-09T04:04:00;15.70;62.80
26053;DHT22;13826;51.186;4.450;2022-09-09T04:06:27;15.70;66.90
26053;DHT22;13826;51.186;4.450;2022-09-09T04:08:53;15.70;63.20
26053;DHT22;13826;51.186;4.450;2022-09-09T04:11:20;15.80;60.90
26053;DHT22;13826;51.186;4.450;2022-09-09T04:13:47;15.80;60.50
26053;DHT22;13826;51.186;4.450;2022-09-09T04:16:13;15.70;64.40
26053;DHT22;13826;51.186;4.450;2022-09-09T04:18:40;15.80;60.20
26053;DHT22;13826;51.186;4.450;2022-09-09T04:21:06;15.90;58.20
26053;DHT22;13826;51.186;4.450;2022-09-09T04:23:36;15.90;57.60
26053;DHT22;13826;51.186;4.450;2022-09-09T04:26:02;15.90;55.80
26053;DHT22;13826;51.186;4.450;2022-09-09T04:28:31;16.00;51.60
26053;DHT22;13826;51.186;4.450;2022-09-09T04:30:57;16.10;51.00
26053;DHT22;13826;51.186;4.450;2022-09-09T04:33:28;16.10;50.00
26053;DHT22;13826;51.186;4.450;2022-09-09T04:35:55;16.10;50.50
26053;DHT22;13826;51.186;4.450;2022-09-09T04:38:21;16.10;49.90
26053;DHT22;13826;51.186;4.450;2022-09-09T04:40:49;16.10;50.00
26053;DHT22;13826;51.186;4.450;2022-09-09T04:43:15;16.00;51.50
26053;DHT22;13826;51.186;4.450;2022-09-09T04:45:47;16.00;49.70
26053;DHT22;13826;51.186;4.450;2022-09-09T04:48:13;16.00;50.30
26053;DHT22;13826;51.186;4.450;2022-09-09T04:50:39;15.90;53.50
26053;DHT22;13826;51.186;4.450;2022-09-09T04:53:06;15.80;59.00
26053;DHT22;13826;51.186;4.450;2022-09-09T04:55:32;15.70;62.70
26053;DHT22;13826;51.186;4.450;2022-09-09T04:57:57;15.80;62.70
26053;DHT22;13826;51.186;4.450;2022-09-09T05:00:24;15.80;62.40
26053;DHT22;13826;51.186;4.450;2022-09-09T05:02:50;15.80;62.00
26053;DHT22;13826;51.186;4.450;2022-09-09T05:05:16;15.80;58.70
26053;DHT22;13826;51.186;4.450;2022-09-09T05:07:42;15.90;57.40
26053;DHT22;13826;51.186;4.450;2022-09-09T05:10:09;15.90;56.60
26053;DHT22;13826;51.186;4.450;2022-09-09T05:12:36;15.90;58.30
26053;DHT22;13826;51.186;4.450;2022-09-09T05:15:01;15.90;55.00
26053;DHT22;13826;51.186;4.450;2022-09-09T05:17:27;16.00;52.50
26053;DHT22;13826;51.186;4.450;2022-09-09T05:19:53;16.10;51.80
26053;DHT22;13826;51.186;4.450;2022-09-09T05:22:21;16.10;50.90
26053;DHT22;13826;51.186;4.450;2022-09-09T05:24:49;16.10;51.20
26053;DHT22;13826;51.186;4.450;2022-09-09T05:27:19;16.10;46.50
26053;DHT22;13826;51.186;4.450;2022-09-09T05:29:45;16.20;49.40
26053;DHT22;13826;51.186;4.450;2022-09-09T05:32:11;16.20;49.20
26053;DHT22;13826;51.186;4.450;2022-09-09T05:34:37;16.40;45.80
26053;DHT22;13826;51.186;4.450;2022-09-09T05:37:03;16.40;39.30
26053;DHT22;13826;51.186;4.450;2022-09-09T05:39:30;16.40;42.10
26053;DHT22;13826;51.186;4.450;2022-09-09T05:41:55;16.50;40.70
26053;DHT22;13826;51.186;4.450;2022-09-09T05:44:21;16.60;37.00
26053;DHT22;13826;51.186;4.450;2022-09-09T05:46:49;16.70;33.90
26053;DHT22;13826;51.186;4.450;2022-09-09T05:49:15;16.80;27.30
26053;DHT22;13826;51.186;4.450;2022-09-09T05:51:41;16.80;32.10
26053;DHT22;13826;51.186;4.450;2022-09-09T05:54:08;17.10;24.00
26053;DHT22;13826;51.186;4.450;2022-09-09T05:56:34;17.20;13.50
26053;DHT22;13826;51.186;4.450;2022-09-09T05:59:00;17.30;8.90
26053;DHT22;13826;51.186;4.450;2022-09-09T06:01:27;17.30;1.00
26053;DHT22;13826;51.186;4.450;2022-09-09T06:03:54;17.30;1.00
26053;DHT22;13826;51.186;4.450;2022-09-09T06:06:22;17.20;1.00
26053;DHT22;13826;51.186;4.450;2022-09-09T06:08:49;17.20;1.00
26053;DHT22;13826;51.186;4.450;2022-09-09T06:11:22;17.10;1.00
26053;DHT22;13826;51.186;4.450;2022-09-09T06:13:48;17.00;1.00
26053;DHT22;13826;51.186;4.450;2022-09-09T06:16:18;16.90;4.90
26053;DHT22;13826;51.186;4.450;2022-09-09T06:18:44;16.90;8.30
26053;DHT22;13826;51.186;4.450;2022-09-09T06:21:21;16.90;10.20
26053;DHT22;13826;51.186;4.450;2022-09-09T06:23:47;17.10;8.10
26053;DHT22;13826;51.186;4.450;2022-09-09T06:26:24;17.20;1.00
26053;DHT22;13826;51.186;4.450;2022-09-09T06:28:52;17.60;1.00
26053;DHT22;13826;51.186;4.450;2022-09-09T06:31:20;17.90;1.00
26053;DHT22;13826;51.186;4.450;2022-09-09T06:33:48;18.00;1.00
26053;DHT22;13826;51.186;4.450;2022-09-09T06:36:26;18.00;1.00
26053;DHT22;13826;51.186;4.450;2022-09-09T06:38:53;18.10;1.00
26053;DHT22;13826;51.186;4.450;2022-09-09T06:41:20;18.10;1.00
26053;DHT22;13826;51.186;4.450;2022-09-09T06:43:46;18.40;1.00
26053;DHT22;13826;51.186;4.450;2022-09-09T06:46:14;18.90;1.00
26053;DHT22;13826;51.186;4.450;2022-09-09T06:48:41;19.20;1.00
26053;DHT22;13826;51.186;4.450;2022-09-09T06:51:09;19.10;1.00
26053;DHT22;13826;51.186;4.450;2022-09-09T06:53:37;18.80;1.00
26053;DHT22;13826;51.186;4.450;2022-09-09T06:56:42;18.40;1.00
26053;DHT22;13826;51.186;4.450;2022-09-09T06:59:08;18.20;1.00
26053;DHT22;13826;51.186;4.450;2022-09-09T07:01:37;18.00;1.00
26053;DHT22;13826;51.186;4.450;2022-09-09T07:04:04;17.80;1.00
26053;DHT22;13826;51.186;4.450;2022-09-09T07:06:37;17.80;1.00
26053;DHT22;13826;51.186;4.450;2022-09-09T07:09:09;17.70;1.00
26053;DHT22;13826;51.186;4.450;2022-09-09T07:11:43;17.70;1.00
26053;DHT22;13826;51.186;4.450;2022-09-09T07:14:12;17.80;1.00
26053;DHT22;13826;51.186;4.450;2022-09-09T07:16:41;17.90;1.00
26053;DHT22;13826;51.186;4.450;2022-09-09T07:19:07;18.00;1.00
26053;DHT22;13826;51.186;4.450;2022-09-09T07:21:33;18.10;1.00
26053;DHT22;13826;51.186;4.450;2022-09-09T07:24:00;18.10;1.00
26053;DHT22;13826;51.186;4.450;2022-09-09T07:26:28;18.00;1.00
26053;DHT22;13826;51.186;4.450;2022-09-09T07:28:54;18.10;1.00
26053;DHT22;13826;51.186;4.450;2022-09-09T07:31:27;18.10;1.00
26053;DHT22;13826;51.186;4.450;2022-09-09T07:33:53;18.20;1.00
26053;DHT22;13826;51.186;4.450;2022-09-09T07:36:21;18.10;1.00
26053;DHT22;13826;51.186;4.450;2022-09-09T07:38:50;18.10;1.00
26053;DHT22;13826;51.186;4.450;2022-09-09T07:41:20;18.20;1.00
26053;DHT22;13826;51.186;4.450;2022-09-09T07:43:47;18.10;1.00
26053;DHT22;13826;51.186;4.450;2022-09-09T07:46:14;18.10;1.00
26053;DHT22;13826;51.186;4.450;2022-09-09T07:48:45;18.00;1.00
26053;DHT22;13826;51.186;4.450;2022-09-09T07:51:14;18.20;1.00
26053;DHT22;13826;51.186;4.450;2022-09-09T07:53:48;18.20;1.00
26053;DHT22;13826;51.186;4.450;2022-09-09T07:56:16;18.10;1.00
26053;DHT22;13826;51.186;4.450;2022-09-09T07:58:47;18.20;1.00
26053;DHT22;13826;51.186;4.450;2022-09-09T08:01:18;18.20;1.00
26053;DHT22;13826;51.186;4.450;2022-09-09T08:03:45;18.20;1.00
26053;DHT22;13826;51.186;4.450;2022-09-09T08:06:12;18.20;1.00
26053;DHT22;13826;51.186;4.450;2022-09-09T08:08:39;18.30;1.00
26053;DHT22;13826;51.186;4.450;2022-09-09T08:11:12;18.40;1.00
26053;DHT22;13826;51.186;4.450;2022-09-09T08:13:40;18.40;1.00
26053;DHT22;13826;51.186;4.450;2022-09-09T08:16:07;18.50;1.00
26053;DHT22;13826;51.186;4.450;2022-09-09T08:18:33;18.50;1.00
26053;DHT22;13826;51.186;4.450;2022-09-09T08:21:14;18.50;1.00
26053;DHT22;13826;51.186;4.450;2022-09-09T08:23:43;18.30;1.00
26053;DHT22;13826;51.186;4.450;2022-09-09T08:26:19;18.20;1.00
26053;DHT22;13826;51.186;4.450;2022-09-09T08:28:48;18.10;1.00
26053;DHT22;13826;51.186;4.450;2022-09-09T08:31:20;18.20;1.00
26053;DHT22;13826;51.186;4.450;2022-09-09T08:33:47;18.20;1.00
26053;DHT22;13826;51.186;4.450;2022-09-09T08:36:24;18.20;1.00
26053;DHT22;13826;51.186;4.450;2022-09-09T08:38:53;18.30;1.00
26053;DHT22;13826;51.186;4.450;2022-09-09T08:50:30;18.60;1.00
26053;DHT22;13826;51.186;4.450;2022-09-09T08:55:49;18.70;1.00
26053;DHT22;13826;51.186;4.450;2022-09-09T08:58:17;18.80;1.00
26053;DHT22;13826;51.186;4.450;2022-09-09T09:06:54;18.50;1.00
26053;DHT22;13826;51.186;4.450;2022-09-09T09:11:51;18.40;1.00
26053;DHT22;13826;51.186;4.450;2022-09-09T09:14:22;18.30;1.00
26053;DHT22;13826;51.186;4.450;2022-09-09T09:19:26;18.30;1.00
26053;DHT22;13826;51.186;4.450;2022-09-09T09:27:34;18.30;1.00
26053;DHT22;13826;51.186;4.450;2022-09-09T09:33:01;18.10;1.00
26053;DHT22;13826;51.186;4.450;2022-09-09T09:35:28;18.00;1.00
26053;DHT22;13826;51.186;4.450;2022-09-09T09:37:54;18.00;1.20
26053;DHT22;13826;51.186;4.450;2022-09-09T09:40:21;18.00;1.00
26053;DHT22;13826;51.186;4.450;2022-09-09T09:42:53;18.10;1.00
26053;DHT22;13826;51.186;4.450;2022-09-09T09:48:06;18.10;1.00
26053;DHT22;13826;51.186;4.450;2022-09-09T09:50:34;18.00;1.00
26053;DHT22;13826;51.186;4.450;2022-09-09T09:53:04;18.10;1.00
26053;DHT22;13826;51.186;4.450;2022-09-09T09:55:33;18.10;1.00
26053;DHT22;13826;51.186;4.450;2022-09-09T09:58:02;18.10;1.00
26053;DHT22;13826;51.186;4.450;2022-09-09T10:00:28;18.20;1.00
26053;DHT22;13826;51.186;4.450;2022-09-09T10:02:54;18.20;1.00
26053;DHT22;13826;51.186;4.450;2022-09-09T10:05:31;18.20;1.00
26053;DHT22;13826;51.186;4.450;2022-09-09T10:08:16;18.20;1.00
26053;DHT22;13826;51.186;4.450;2022-09-09T10:19:00;18.10;1.00
26053;DHT22;13826;51.186;4.450;2022-09-09T10:21:32;18.00;1.00
26053;DHT22;13826;51.186;4.450;2022-09-09T10:24:20;18.20;1.00
26053;DHT22;13826;51.186;4.450;2022-09-09T10:32:36;18.60;1.00
26053;DHT22;13826;51.186;4.450;2022-09-09T10:40:58;19.00;1.00
26053;DHT22;13826;51.186;4.450;2022-09-09T10:51:28;19.40;1.00
26053;DHT22;13826;51.186;4.450;2022-09-09T10:56:27;19.50;1.00
26053;DHT22;13826;51.186;4.450;2022-09-09T10:59:07;19.20;1.00
26053;DHT22;13826;51.186;4.450;2022-09-09T11:02:12;19.40;1.00
26053;DHT22;13826;51.186;4.450;2022-09-09T11:04:42;19.50;1.00
26053;DHT22;13826;51.186;4.450;2022-09-09T11:07:14;19.30;1.00
26053;DHT22;13826;51.186;4.450;2022-09-09T11:09:50;19.30;1.00
26053;DHT22;13826;51.186;4.450;2022-09-09T11:12:19;19.20;1.00
26053;DHT22;13826;51.186;4.450;2022-09-09T11:14:47;19.30;1.00
26053;DHT22;13826;51.186;4.450;2022-09-09T11:17:23;19.40;1.00
26053;DHT22;13826;51.186;4.450;2022-09-09T11:19:49;19.60;1.00
26053;DHT22;13826;51.186;4.450;2022-09-09T11:25:14;20.40;1.00
26053;DHT22;13826;51.186;4.450;2022-09-09T11:28:10;20.80;1.00
26053;DHT22;13826;51.186;4.450;2022-09-09T11:36:19;21.50;1.00
26053;DHT22;13826;51.186;4.450;2022-09-09T11:41:40;21.30;1.00
26053;DHT22;13826;51.186;4.450;2022-09-09T11:44:18;20.90;1.00
26053;DHT22;13826;51.186;4.450;2022-09-09T11:46:49;20.90;1.00
26053;DHT22;13826;51.186;4.450;2022-09-09T11:49:28;20.90;1.00
26053;DHT22;13826;51.186;4.450;2022-09-09T11:51:56;21.30;1.00
26053;DHT22;13826;51.186;4.450;2022-09-09T11:54:32;21.50;1.00
26053;DHT22;13826;51.186;4.450;2022-09-09T11:57:02;21.40;1.00
26053;DHT22;13826;51.186;4.450;2022-09-09T11:59:31;21.80;99.90
26053;DHT22;13826;51.186;4.450;2022-09-09T12:04:32;21.90;99.90
26053;DHT22;13826;51.186;4.450;2022-09-09T12:09:45;22.60;99.90
26053;DHT22;13826;51.186;4.450;2022-09-09T12:14:56;22.40;99.90
26053;DHT22;13826;51.186;4.450;2022-09-09T12:17:24;22.20;99.90
26053;DHT22;13826;51.186;4.450;2022-09-09T12:28:24;21.80;99.90
26053;DHT22;13826;51.186;4.450;2022-09-09T12:31:02;22.20;99.90
26053;DHT22;13826;51.186;4.450;2022-09-09T12:33:39;22.40;99.90
26053;DHT22;13826;51.186;4.450;2022-09-09T12:36:14;22.20;99.90
26053;DHT22;13826;51.186;4.450;2022-09-09T12:38:42;22.30;99.90
26053;DHT22;13826;51.186;4.450;2022-09-09T12:41:22;22.50;99.90
26053;DHT22;13826;51.186;4.450;2022-09-09T12:43:48;22.30;99.90
26053;DHT22;13826;51.186;4.450;2022-09-09T12:46:39;22.10;99.90
26053;DHT22;13826;51.186;4.450;2022-09-09T12:49:37;21.70;99.90
26053;DHT22;13826;51.186;4.450;2022-09-09T12:52:07;21.50;99.90
26053;DHT22;13826;51.186;4.450;2022-09-09T12:54:36;21.50;1.00
26053;DHT22;13826;51.186;4.450;2022-09-09T12:57:03;21.60;1.00
26053;DHT22;13826;51.186;4.450;2022-09-09T12:59:38;21.80;99.90
26053;DHT22;13826;51.186;4.450;2022-09-09T13:02:20;22.20;99.90
26053;DHT22;13826;51.186;4.450;2022-09-09T13:04:46;22.30;99.90
26053;DHT22;13826;51.186;4.450;2022-09-09T13:07:13;22.30;99.90
26053;DHT22;13826;51.186;4.450;2022-09-09T13:09:39;22.40;99.90
26053;DHT22;13826;51.186;4.450;2022-09-09T13:12:11;22.60;99.90
26053;DHT22;13826;51.186;4.450;2022-09-09T13:14:38;22.60;99.90
26053;DHT22;13826;51.186;4.450;2022-09-09T13:17:06;22.50;99.90
26053;DHT22;13826;51.186;4.450;2022-09-09T13:19:36;22.40;99.90
26053;DHT22;13826;51.186;4.450;2022-09-09T13:22:33;22.40;99.90
26053;DHT22;13826;51.186;4.450;2022-09-09T13:25:06;22.70;99.90
26053;DHT22;13826;51.186;4.450;2022-09-09T13:27:41;22.60;99.90
26053;DHT22;13826;51.186;4.450;2022-09-09T13:30:26;22.40;99.90
26053;DHT22;13826;51.186;4.450;2022-09-09T13:35:32;22.50;99.90
26053;DHT22;13826;51.186;4.450;2022-09-09T13:37:59;22.60;99.90
26053;DHT22;13826;51.186;4.450;2022-09-09T13:40:33;22.70;99.90
26053;DHT22;13826;51.186;4.450;2022-09-09T13:42:59;22.80;99.90
26053;DHT22;13826;51.186;4.450;2022-09-09T13:45:26;22.70;99.90
26053;DHT22;13826;51.186;4.450;2022-09-09T13:47:53;22.90;99.90
26053;DHT22;13826;51.186;4.450;2022-09-09T13:50:29;23.10;22.70
26053;DHT22;13826;51.186;4.450;2022-09-09T13:52:57;23.10;25.30
26053;DHT22;13826;51.186;4.450;2022-09-09T13:55:29;22.70;99.90
26053;DHT22;13826;51.186;4.450;2022-09-09T13:58:00;22.70;99.90
26053;DHT22;13826;51.186;4.450;2022-09-09T14:00:29;22.60;99.90
26053;DHT22;13826;51.186;4.450;2022-09-09T14:02:55;22.80;99.90
26053;DHT22;13826;51.186;4.450;2022-09-09T14:05:21;22.50;99.90
26053;DHT22;13826;51.186;4.450;2022-09-09T14:07:50;22.50;99.90
26053;DHT22;13826;51.186;4.450;2022-09-09T14:10:16;22.50;99.90
26053;DHT22;13826;51.186;4.450;2022-09-09T14:12:42;22.30;99.90
26053;DHT22;13826;51.186;4.450;2022-09-09T14:15:10;22.40;99.90
26053;DHT22;13826;51.186;4.450;2022-09-09T14:17:37;22.60;99.90
26053;DHT22;13826;51.186;4.450;2022-09-09T14:20:06;22.50;99.90
26053;DHT22;13826;51.186;4.450;2022-09-09T14:22:41;22.20;99.90
26053;DHT22;13826;51.186;4.450;2022-09-09T14:25:07;22.20;99.90
26053;DHT22;13826;51.186;4.450;2022-09-09T14:27:33;22.20;99.90
26053;DHT22;13826;51.186;4.450;2022-09-09T14:29:59;22.20;99.90
26053;DHT22;13826;51.186;4.450;2022-09-09T14:32:26;22.50;99.90
26053;DHT22;13826;51.186;4.450;2022-09-09T14:34:52;22.40;99.90
26053;DHT22;13826;51.186;4.450;2022-09-09T14:37:19;22.40;99.90
26053;DHT22;13826;51.186;4.450;2022-09-09T14:39:51;22.50;99.90
26053;DHT22;13826;51.186;4.450;2022-09-09T14:42:20;22.40;99.90
26053;DHT22;13826;51.186;4.450;2022-09-09T14:44:47;22.20;99.90
26053;DHT22;13826;51.186;4.450;2022-09-09T14:47:13;22.40;99.90
26053;DHT22;13826;51.186;4.450;2022-09-09T14:49:38;22.70;99.90
26053;DHT22;13826;51.186;4.450;2022-09-09T14:52:04;22.80;99.90
26053;DHT22;13826;51.186;4.450;2022-09-09T14:54:31;22.80;99.90
26053;DHT22;13826;51.186;4.450;2022-09-09T14:56:57;22.80;99.90
26053;DHT22;13826;51.186;4.450;2022-09-09T14:59:23;23.00;99.90
26053;DHT22;13826;51.186;4.450;2022-09-09T15:01:49;22.90;99.90
26053;DHT22;13826;51.186;4.450;2022-09-09T15:04:15;22.70;99.90
26053;DHT22;13826;51.186;4.450;2022-09-09T15:06:42;22.40;99.90
26053;DHT22;13826;51.186;4.450;2022-09-09T15:09:10;22.30;99.90
26053;DHT22;13826;51.186;4.450;2022-09-09T15:11:37;22.10;99.90
26053;DHT22;13826;51.186;4.450;2022-09-09T15:14:04;22.10;99.90
26053;DHT22;13826;51.186;4.450;2022-09-09T15:16:30;22.00;99.90
26053;DHT22;13826;51.186;4.450;2022-09-09T15:18:58;21.90;99.90
26053;DHT22;13826;51.186;4.450;2022-09-09T15:21:29;21.60;99.90
26053;DHT22;13826;51.186;4.450;2022-09-09T15:23:56;21.50;99.90
26053;DHT22;13826;51.186;4.450;2022-09-09T15:26:22;21.40;1.00
26053;DHT22;13826;51.186;4.450;2022-09-09T15:28:49;21.30;1.00
26053;DHT22;13826;51.186;4.450;2022-09-09T15:31:27;21.20;1.00
26053;DHT22;13826;51.186;4.450;2022-09-09T15:33:56;21.30;1.00
26053;DHT22;13826;51.186;4.450;2022-09-09T15:36:36;21.40;99.90
26053;DHT22;13826;51.186;4.450;2022-09-09T15:39:03;21.40;99.90
26053;DHT22;13826;51.186;4.450;2022-09-09T15:41:29;21.60;99.90
26053;DHT22;13826;51.186;4.450;2022-09-09T15:43:57;21.60;99.90
26053;DHT22;13826;51.186;4.450;2022-09-09T15:46:37;21.60;99.90
26053;DHT22;13826;51.186;4.450;2022-09-09T15:49:10;21.60;99.90
26053;DHT22;13826;51.186;4.450;2022-09-09T15:51:38;21.60;99.90
26053;DHT22;13826;51.186;4.450;2022-09-09T15:54:04;21.50;99.90
26053;DHT22;13826;51.186;4.450;2022-09-09T15:56:31;21.40;99.90
26053;DHT22;13826;51.186;4.450;2022-09-09T15:58:58;21.30;99.90
26053;DHT22;13826;51.186;4.450;2022-09-09T16:01:26;21.40;99.90
26053;DHT22;13826;51.186;4.450;2022-09-09T16:03:52;21.30;1.00
26053;DHT22;13826;51.186;4.450;2022-09-09T16:06:21;21.10;1.00
26053;DHT22;13826;51.186;4.450;2022-09-09T16:08:49;20.80;1.00
26053;DHT22;13826;51.186;4.450;2022-09-09T16:11:23;20.80;1.00
26053;DHT22;13826;51.186;4.450;2022-09-09T16:13:51;20.60;1.00
26053;DHT22;13826;51.186;4.450;2022-09-09T16:16:19;20.30;1.00
26053;DHT22;13826;51.186;4.450;2022-09-09T16:18:52;20.40;1.00
26053;DHT22;13826;51.186;4.450;2022-09-09T16:21:32;20.50;1.00
26053;DHT22;13826;51.186;4.450;2022-09-09T16:24:00;20.60;1.00
26053;DHT22;13826;51.186;4.450;2022-09-09T16:26:26;20.70;1.00
26053;DHT22;13826;51.186;4.450;2022-09-09T16:28:52;21.00;1.00
26053;DHT22;13826;51.186;4.450;2022-09-09T16:31:22;21.00;1.00
26053;DHT22;13826;51.186;4.450;2022-09-09T16:33:49;21.30;1.00
26053;DHT22;13826;51.186;4.450;2022-09-09T16:36:27;21.00;1.00
26053;DHT22;13826;51.186;4.450;2022-09-09T16:38:54;21.00;1.00
26053;DHT22;13826;51.186;4.450;2022-09-09T16:41:23;20.90;1.00
26053;DHT22;13826;51.186;4.450;2022-09-09T16:43:57;20.90;1.00
26053;DHT22;13826;51.186;4.450;2022-09-09T16:46:23;20.80;1.00
26053;DHT22;13826;51.186;4.450;2022-09-09T16:48:50;20.70;1.00
26053;DHT22;13826;51.186;4.450;2022-09-09T16:51:24;20.50;1.00
26053;DHT22;13826;51.186;4.450;2022-09-09T16:53:51;20.20;1.00
26053;DHT22;13826;51.186;4.450;2022-09-09T16:56:21;20.10;1.00
26053;DHT22;13826;51.186;4.450;2022-09-09T16:58:56;20.10;1.00
26053;DHT22;13826;51.186;4.450;2022-09-09T17:01:23;20.10;1.00
26053;DHT22;13826;51.186;4.450;2022-09-09T17:03:56;20.10;1.00
26053;DHT22;13826;51.186;4.450;2022-09-09T17:06:22;20.10;1.00
26053;DHT22;13826;51.186;4.450;2022-09-09T17:08:57;20.10;1.00
26053;DHT22;13826;51.186;4.450;2022-09-09T17:11:23;20.00;1.00
26053;DHT22;13826;51.186;4.450;2022-09-09T17:13:50;20.10;1.00
26053;DHT22;13826;51.186;4.450;2022-09-09T17:16:18;19.90;1.00
26053;DHT22;13826;51.186;4.450;2022-09-09T17:18:44;19.90;1.00
26053;DHT22;13826;51.186;4.450;2022-09-09T17:21:16;19.90;1.00
26053;DHT22;13826;51.186;4.450;2022-09-09T17:23:43;19.70;1.00
26053;DHT22;13826;51.186;4.450;2022-09-09T17:26:12;19.90;1.00
26053;DHT22;13826;51.186;4.450;2022-09-09T17:28:38;20.00;1.00
26053;DHT22;13826;51.186;4.450;2022-09-09T17:31:09;19.90;1.00
26053;DHT22;13826;51.186;4.450;2022-09-09T17:33:38;19.70;1.00
26053;DHT22;13826;51.186;4.450;2022-09-09T17:36:13;19.70;1.00
26053;DHT22;13826;51.186;4.450;2022-09-09T17:38:39;19.60;1.00
26053;DHT22;13826;51.186;4.450;2022-09-09T17:41:11;19.60;1.00
26053;DHT22;13826;51.186;4.450;2022-09-09T17:43:38;19.60;1.00
26053;DHT22;13826;51.186;4.450;2022-09-09T17:46:09;19.60;1.00
26053;DHT22;13826;51.186;4.450;2022-09-09T17:48:37;19.60;1.00
26053;DHT22;13826;51.186;4.450;2022-09-09T17:51:05;19.70;1.00
26053;DHT22;13826;51.186;4.450;2022-09-09T17:53:39;19.70;1.00
26053;DHT22;13826;51.186;4.450;2022-09-09T17:56:07;19.70;1.00
26053;DHT22;13826;51.186;4.450;2022-09-09T17:58:33;19.60;1.00
26053;DHT22;13826;51.186;4.450;2022-09-09T18:01:09;19.50;1.00
26053;DHT22;13826;51.186;4.450;2022-09-09T18:03:37;19.50;1.00
26053;DHT22;13826;51.186;4.450;2022-09-09T18:06:06;19.50;1.00
26053;DHT22;13826;51.186;4.450;2022-09-09T18:08:35;19.60;1.00
26053;DHT22;13826;51.186;4.450;2022-09-09T18:11:02;19.60;1.00
26053;DHT22;13826;51.186;4.450;2022-09-09T18:13:28;19.70;1.00
26053;DHT22;13826;51.186;4.450;2022-09-09T18:15:54;19.60;1.00
26053;DHT22;13826;51.186;4.450;2022-09-09T18:18:21;19.50;3.80